Time;durP1;ratioP1;P1;durP2;ratioP2;P2;SDS_P1;SDS_P2;PMS_P1;PMS_P2;Temp;Humidity;BMP_temperature;BMP_pressure;BME280_temperature;BME280_humidity;BME280_pressure;Samples;Min_cycle;Max_cycle;Signal;HPM_P1;HPM_P2
2022/03/06 00:01:09;;;;;;;18.42;12.30;;;2.50;99.90;;;;;;5107606;28;20126;-74
2022/03/06 00:03:35;;;;;;;15.82;11.20;;;2.60;99.90;;;;;;5106096;28;20120;-73
2022/03/06 00:06:01;;;;;;;15.68;10.40;;;2.70;99.90;;;;;;5106459;28;20036;-74
2022/03/06 00:08:28;;;;;;;16.60;11.00;;;2.70;99.90;;;;;;5117530;27;20471;-73
2022/03/06 00:10:54;;;;;;;16.15;10.52;;;2.70;99.90;;;;;;5113160;27;20035;-74
2022/03/06 00:13:19;;;;;;;16.50;10.32;;;2.70;99.90;;;;;;5130046;27;20410;-74
2022/03/06 00:15:45;;;;;;;15.60;10.25;;;2.70;99.90;;;;;;5127826;27;20188;-74
2022/03/06 00:18:11;;;;;;;15.23;10.27;;;2.70;99.90;;;;;;5113845;27;20444;-74
2022/03/06 00:20:36;;;;;;;15.75;9.70;;;2.80;99.90;;;;;;5106879;28;20411;-73
2022/03/06 00:23:05;;;;;;;15.05;9.80;;;2.80;99.90;;;;;;5090306;28;20056;-74
2022/03/06 00:25:31;;;;;;;14.93;9.05;;;2.90;99.90;;;;;;5107128;28;20040;-74
2022/03/06 00:27:57;;;;;;;13.60;9.50;;;2.90;99.90;;;;;;5107489;28;20084;-74
2022/03/06 00:30:22;;;;;;;13.35;9.38;;;2.90;99.90;;;;;;5107613;28;20438;-73
2022/03/06 00:32:48;;;;;;;13.57;9.20;;;2.80;99.90;;;;;;5105312;28;20390;-73
2022/03/06 00:35:14;;;;;;;13.73;9.30;;;2.80;99.90;;;;;;5107573;28;20500;-74
2022/03/06 00:37:39;;;;;;;13.85;9.02;;;2.90;99.90;;;;;;5106494;28;20063;-74
2022/03/06 00:40:06;;;;;;;14.85;9.27;;;2.90;99.90;;;;;;5107303;28;20495;-74
2022/03/06 00:42:32;;;;;;;12.10;8.38;;;2.90;99.90;;;;;;5106506;28;20411;-74
2022/03/06 00:44:58;;;;;;;13.63;8.20;;;2.90;99.90;;;;;;5107764;28;20052;-73
2022/03/06 00:47:23;;;;;;;13.77;8.00;;;2.80;99.90;;;;;;5105596;28;20079;-74
2022/03/06 00:49:49;;;;;;;12.55;8.13;;;2.90;99.90;;;;;;5109766;28;20094;-74
2022/03/06 00:52:15;;;;;;;11.48;8.25;;;2.80;99.90;;;;;;5108552;28;20530;-74
2022/03/06 00:54:41;;;;;;;13.15;8.32;;;2.80;99.90;;;;;;5105853;28;20560;-74
2022/03/06 00:57:06;;;;;;;16.17;8.77;;;2.80;99.90;;;;;;5107505;28;20127;-74
2022/03/06 00:59:35;;;;;;;13.07;8.23;;;2.80;99.90;;;;;;5106779;28;20535;-73
2022/03/06 01:02:03;;;;;;;11.60;7.93;;;2.80;99.90;;;;;;5089303;28;20495;-75
2022/03/06 01:04:29;;;;;;;12.90;8.20;;;2.80;99.90;;;;;;5107412;28;20062;-73
2022/03/06 01:06:55;;;;;;;13.43;7.75;;;2.80;99.90;;;;;;5114135;28;20038;-74
2022/03/06 01:09:21;;;;;;;11.07;7.40;;;2.60;99.90;;;;;;5144460;27;20403;-74
2022/03/06 01:11:47;;;;;;;11.18;7.25;;;3.90;99.90;;;;;;5126623;28;20095;-73
2022/03/06 01:14:12;;;;;;;10.63;7.05;;;2.80;99.90;;;;;;5128099;28;20054;-73
2022/03/06 01:16:38;;;;;;;11.25;7.63;;;3.90;99.90;;;;;;5146601;27;20043;-74
2022/03/06 01:19:04;;;;;;;11.70;7.25;;;2.90;99.90;;;;;;5130396;27;20496;-74
2022/03/06 01:21:29;;;;;;;10.77;6.90;;;2.80;99.90;;;;;;5130744;27;20138;-74
2022/03/06 01:23:55;;;;;;;11.70;7.28;;;2.90;99.90;;;;;;5130535;27;20352;-73
2022/03/06 01:26:21;;;;;;;13.27;7.35;;;3.80;99.90;;;;;;5133075;27;20047;-73
2022/03/06 01:28:46;;;;;;;10.90;7.68;;;2.90;99.90;;;;;;5131545;27;20039;-73
2022/03/06 01:31:12;;;;;;;12.25;7.22;;;2.90;99.90;;;;;;5151328;27;20066;-74
2022/03/06 01:33:38;;;;;;;13.23;7.63;;;2.90;99.90;;;;;;5146896;27;20184;-74
2022/03/06 01:36:04;;;;;;;12.10;7.85;;;2.90;99.90;;;;;;5129898;27;20091;-74
2022/03/06 01:38:30;;;;;;;12.82;7.85;;;4.20;99.90;;;;;;5148064;27;20154;-74
2022/03/06 01:40:56;;;;;;;13.27;7.78;;;2.90;99.90;;;;;;5131384;27;20051;-74
2022/03/06 01:43:22;;;;;;;11.63;7.63;;;2.90;99.90;;;;;;5130088;27;20091;-74
2022/03/06 01:45:47;;;;;;;12.27;8.05;;;2.90;99.90;;;;;;5131403;27;20150;-74
2022/03/06 01:48:13;;;;;;;13.82;7.57;;;2.90;99.90;;;;;;5128464;27;20542;-74
2022/03/06 01:50:39;;;;;;;10.95;7.55;;;4.30;99.90;;;;;;5111183;28;20054;-73
2022/03/06 01:53:07;;;;;;;10.57;7.50;;;2.90;99.90;;;;;;5109942;28;20039;-74
2022/03/06 01:55:34;;;;;;;10.65;7.05;;;2.90;99.90;;;;;;5110221;28;20494;-74
2022/03/06 01:58:04;;;;;;;10.75;7.35;;;2.90;99.90;;;;;;5110939;28;20055;-74
2022/03/06 02:00:34;;;;;;;11.05;7.13;;;2.90;99.90;;;;;;5112438;28;20051;-73
2022/03/06 02:03:00;;;;;;;11.70;7.70;;;2.90;99.90;;;;;;5109263;28;20048;-74
2022/03/06 02:05:26;;;;;;;11.73;7.22;;;2.90;99.90;;;;;;5109706;28;20062;-73
2022/03/06 02:07:52;;;;;;;12.93;7.50;;;2.80;99.90;;;;;;5109270;28;20058;-74
2022/03/06 02:10:18;;;;;;;10.35;7.30;;;2.80;99.90;;;;;;5109953;28;20044;-73
2022/03/06 02:12:44;;;;;;;10.30;6.70;;;2.80;99.90;;;;;;5108479;28;20130;-74
2022/03/06 02:15:12;;;;;;;10.70;7.43;;;2.80;99.90;;;;;;5110324;28;20058;-74
2022/03/06 02:17:38;;;;;;;11.68;6.63;;;2.80;99.90;;;;;;5108206;28;20047;-74
2022/03/06 02:20:16;;;;;;;10.98;6.97;;;2.80;99.90;;;;;;5109663;28;20039;-74
2022/03/06 02:22:47;;;;;;;11.98;6.32;;;2.90;99.90;;;;;;5108703;28;20052;-74
2022/03/06 02:25:27;;;;;;;11.05;6.40;;;2.80;99.90;;;;;;5092037;28;20093;-73
2022/03/06 02:27:55;;;;;;;10.85;6.20;;;2.80;99.90;;;;;;5107803;28;20446;-73
2022/03/06 02:30:30;;;;;;;10.38;5.78;;;2.80;99.90;;;;;;5113257;28;20044;-74
2022/03/06 02:32:58;;;;;;;9.35;5.50;;;2.80;99.90;;;;;;5109297;27;20043;-73
2022/03/06 02:35:24;;;;;;;9.68;5.43;;;2.90;99.90;;;;;;5109594;28;20105;-74
2022/03/06 02:37:50;;;;;;;12.10;6.28;;;2.90;99.90;;;;;;5107946;28;20055;-74
2022/03/06 02:40:18;;;;;;;9.05;5.57;;;3.80;99.90;;;;;;5124626;27;20044;-74
2022/03/06 02:42:45;;;;;;;8.80;5.80;;;2.90;99.90;;;;;;5091285;28;20054;-73
2022/03/06 02:45:18;;;;;;;9.90;5.68;;;2.80;99.90;;;;;;5109751;28;20102;-74
2022/03/06 02:47:45;;;;;;;10.15;5.85;;;2.80;99.90;;;;;;5106542;28;20147;-73
2022/03/06 02:50:15;;;;;;;10.55;5.57;;;3.00;99.90;;;;;;5109542;28;20051;-74
2022/03/06 02:52:41;;;;;;;10.70;6.18;;;4.00;99.90;;;;;;5109586;28;20053;-74
2022/03/06 02:55:09;;;;;;;11.65;5.43;;;3.80;99.90;;;;;;5126200;27;20044;-73
2022/03/06 02:57:35;;;;;;;8.52;5.35;;;2.80;99.90;;;;;;5107885;28;20098;-73
2022/03/06 03:00:03;;;;;;;9.32;5.70;;;2.80;99.90;;;;;;5109530;28;20472;-73
2022/03/06 03:02:28;;;;;;;10.73;6.35;;;2.80;99.90;;;;;;5107560;28;20492;-73
2022/03/06 03:04:54;;;;;;;11.52;6.00;;;4.00;99.90;;;;;;5109259;28;20039;-74
2022/03/06 03:07:20;;;;;;;10.25;5.65;;;2.70;99.90;;;;;;5108458;28;20353;-74
2022/03/06 03:09:45;;;;;;;9.90;5.88;;;2.80;99.90;;;;;;5125232;27;20048;-73
2022/03/06 03:12:11;;;;;;;10.35;6.15;;;2.80;99.90;;;;;;5126109;27;20043;-74
2022/03/06 03:14:37;;;;;;;8.90;5.50;;;2.70;99.90;;;;;;5107881;28;20547;-74
2022/03/06 03:17:04;;;;;;;9.77;6.22;;;2.70;99.90;;;;;;5108537;28;20055;-74
2022/03/06 03:19:30;;;;;;;12.40;6.00;;;2.70;99.90;;;;;;5107550;28;20050;-74
2022/03/06 03:21:56;;;;;;;14.00;6.13;;;3.30;99.90;;;;;;5107232;28;20414;-74
2022/03/06 03:24:23;;;;;;;12.10;6.47;;;2.70;99.90;;;;;;5109473;27;20040;-74
2022/03/06 03:26:48;;;;;;;12.73;6.30;;;2.80;99.90;;;;;;5111164;27;20536;-73
2022/03/06 03:29:14;;;;;;;9.10;5.80;;;2.70;99.90;;;;;;5145586;27;20503;-74
2022/03/06 03:31:40;;;;;;;9.75;5.60;;;2.70;99.90;;;;;;5136191;27;20043;-73
2022/03/06 03:34:05;;;;;;;9.18;6.00;;;2.70;99.90;;;;;;5107057;28;20420;-73
2022/03/06 03:36:31;;;;;;;12.32;5.80;;;2.70;99.90;;;;;;5106903;28;20051;-74
2022/03/06 03:38:57;;;;;;;10.57;6.07;;;2.70;99.90;;;;;;5107963;28;20451;-74
2022/03/06 03:41:23;;;;;;;10.82;6.10;;;2.70;99.90;;;;;;5110531;28;20054;-73
2022/03/06 03:43:49;;;;;;;10.45;5.95;;;2.70;99.90;;;;;;5107455;28;20047;-73
2022/03/06 03:46:15;;;;;;;11.68;5.95;;;2.60;99.90;;;;;;5108245;28;20489;-73
2022/03/06 03:48:41;;;;;;;11.73;5.38;;;2.60;99.90;;;;;;5106575;28;20108;-73
2022/03/06 03:51:06;;;;;;;10.55;5.80;;;2.60;99.90;;;;;;5106653;28;20071;-74
2022/03/06 03:53:32;;;;;;;8.55;5.35;;;2.60;99.90;;;;;;5107400;28;20147;-74
2022/03/06 03:55:58;;;;;;;10.13;6.53;;;2.60;99.90;;;;;;5108359;28;20040;-74
2022/03/06 03:58:23;;;;;;;10.00;5.97;;;2.60;99.90;;;;;;5139242;27;20055;-74
2022/03/06 04:00:55;;;;;;;11.85;6.05;;;2.50;99.90;;;;;;5129432;27;20124;-74
2022/03/06 04:03:21;;;;;;;13.02;5.97;;;2.40;99.90;;;;;;5127024;27;20043;-73
2022/03/06 04:05:47;;;;;;;13.18;5.90;;;2.30;99.90;;;;;;5127714;27;20079;-74
2022/03/06 04:08:13;;;;;;;9.40;6.00;;;2.20;99.90;;;;;;5120430;27;20079;-74
2022/03/06 04:10:39;;;;;;;10.60;6.20;;;2.20;99.90;;;;;;5108003;28;20135;-74
2022/03/06 04:13:05;;;;;;;11.45;6.45;;;2.30;99.90;;;;;;5107741;28;20221;-74
2022/03/06 04:15:30;;;;;;;9.80;5.53;;;2.30;99.90;;;;;;5090538;28;20040;-74
2022/03/06 04:17:56;;;;;;;9.27;6.15;;;2.20;99.90;;;;;;5107234;28;20046;-75
2022/03/06 04:20:22;;;;;;;9.82;6.03;;;2.20;99.90;;;;;;5107705;28;20051;-73
2022/03/06 04:22:47;;;;;;;10.07;5.82;;;2.20;99.90;;;;;;5106909;28;20055;-74
2022/03/06 04:25:13;;;;;;;10.80;6.53;;;2.20;99.90;;;;;;5107336;28;20123;-74
2022/03/06 04:27:39;;;;;;;11.13;5.65;;;2.30;99.90;;;;;;5123456;27;20103;-73
2022/03/06 04:30:05;;;;;;;9.45;6.10;;;2.00;99.90;;;;;;5107911;28;20051;-72
2022/03/06 04:32:31;;;;;;;9.52;5.63;;;2.00;99.90;;;;;;5104551;28;20166;-73
2022/03/06 04:34:57;;;;;;;12.85;6.32;;;1.90;99.90;;;;;;5108055;28;20096;-73
2022/03/06 04:37:23;;;;;;;9.45;6.20;;;1.90;99.90;;;;;;5107057;28;20040;-73
2022/03/06 04:39:48;;;;;;;10.25;6.20;;;1.80;99.90;;;;;;5117642;28;20047;-73
2022/03/06 04:42:14;;;;;;;9.10;5.47;;;1.80;99.90;;;;;;5107410;28;20385;-74
2022/03/06 04:44:40;;;;;;;13.60;6.47;;;1.70;99.90;;;;;;5106814;28;20039;-74
2022/03/06 04:47:06;;;;;;;11.30;6.03;;;1.60;99.90;;;;;;5107861;28;20054;-73
2022/03/06 04:49:32;;;;;;;9.57;5.93;;;1.60;99.90;;;;;;5106083;28;20047;-73
2022/03/06 04:51:57;;;;;;;12.25;5.60;;;1.50;99.90;;;;;;5111554;28;20035;-74
2022/03/06 04:54:24;;;;;;;11.90;5.57;;;1.50;99.90;;;;;;5111391;28;20075;-73
2022/03/06 04:56:50;;;;;;;9.68;5.40;;;1.40;99.90;;;;;;5114713;27;20055;-73
2022/03/06 04:59:16;;;;;;;12.05;6.13;;;1.40;99.90;;;;;;5098229;27;20047;-73
2022/03/06 05:01:41;;;;;;;8.60;5.45;;;1.30;99.90;;;;;;5113508;27;20195;-73
2022/03/06 05:04:07;;;;;;;9.90;5.50;;;1.40;99.90;;;;;;5132257;27;20075;-73
2022/03/06 05:06:33;;;;;;;10.13;5.82;;;1.30;99.90;;;;;;5114199;27;20045;-73
2022/03/06 05:08:58;;;;;;;9.93;5.63;;;1.30;99.90;;;;;;5132399;27;20047;-73
2022/03/06 05:11:24;;;;;;;9.40;5.30;;;1.20;99.90;;;;;;5133702;27;20035;-73
2022/03/06 05:13:50;;;;;;;10.35;5.65;;;1.20;99.90;;;;;;5131980;27;20046;-73
2022/03/06 05:16:16;;;;;;;11.32;5.45;;;1.20;99.90;;;;;;5114434;27;20043;-73
2022/03/06 05:18:42;;;;;;;9.85;5.18;;;1.20;99.90;;;;;;5131629;27;20051;-74
2022/03/06 05:21:07;;;;;;;10.25;5.00;;;1.10;99.90;;;;;;5113936;27;20051;-73
2022/03/06 05:23:33;;;;;;;10.48;4.93;;;1.10;99.90;;;;;;5096728;27;20130;-74
2022/03/06 05:25:59;;;;;;;12.43;5.07;;;1.10;99.90;;;;;;5097529;27;20130;-73
2022/03/06 05:28:28;;;;;;;9.00;4.90;;;1.90;99.90;;;;;;5096930;27;20047;-74
2022/03/06 05:30:54;;;;;;;9.98;4.85;;;1.00;99.90;;;;;;5114640;27;20390;-74
2022/03/06 05:33:20;;;;;;;8.38;4.53;;;1.00;99.90;;;;;;5112656;27;20448;-73
2022/03/06 05:35:47;;;;;;;11.15;5.05;;;1.00;99.90;;;;;;5113628;27;20043;-73
2022/03/06 05:38:13;;;;;;;7.90;4.80;;;0.90;99.90;;;;;;5113908;27;20065;-74
2022/03/06 05:40:39;;;;;;;8.80;4.75;;;1.00;99.90;;;;;;5113453;27;20506;-74
2022/03/06 05:43:05;;;;;;;10.77;4.80;;;1.00;99.90;;;;;;5113195;27;20047;-74
2022/03/06 05:45:30;;;;;;;10.82;4.72;;;0.90;99.90;;;;;;5113009;27;20040;-73
2022/03/06 05:47:56;;;;;;;8.63;4.88;;;0.90;99.90;;;;;;5112894;27;20047;-73
2022/03/06 05:50:22;;;;;;;10.07;5.40;;;0.90;99.90;;;;;;5113895;27;20040;-73
2022/03/06 05:52:48;;;;;;;7.28;4.55;;;0.90;99.90;;;;;;5114037;27;20149;-73
2022/03/06 05:55:14;;;;;;;8.98;4.70;;;0.90;99.90;;;;;;5114828;27;20466;-73
2022/03/06 05:57:40;;;;;;;9.38;4.45;;;0.90;99.90;;;;;;5111584;27;20082;-73
2022/03/06 06:00:08;;;;;;;8.40;4.80;;;0.90;99.90;;;;;;5132641;27;20047;-73
2022/03/06 06:02:38;;;;;;;7.45;4.70;;;0.80;99.90;;;;;;5111657;27;20047;-73
2022/03/06 06:05:08;;;;;;;8.85;5.40;;;0.80;99.90;;;;;;5113613;27;20043;-73
2022/03/06 06:07:34;;;;;;;9.15;5.35;;;0.80;99.90;;;;;;5113867;27;20035;-73
2022/03/06 06:10:00;;;;;;;10.40;4.70;;;0.80;99.90;;;;;;5134221;27;20059;-73
2022/03/06 06:12:26;;;;;;;7.15;4.60;;;0.80;99.90;;;;;;5115958;27;20057;-73
2022/03/06 06:14:52;;;;;;;8.27;4.85;;;0.80;99.90;;;;;;5133719;27;20129;-73
2022/03/06 06:17:18;;;;;;;9.50;5.20;;;0.80;99.90;;;;;;5132514;27;20057;-73
2022/03/06 06:19:44;;;;;;;8.23;4.63;;;0.80;99.90;;;;;;5132876;27;20053;-73
2022/03/06 06:22:10;;;;;;;8.82;4.72;;;0.90;99.90;;;;;;5133621;27;20476;-73
2022/03/06 06:24:36;;;;;;;7.43;4.63;;;0.90;99.90;;;;;;5132873;27;20364;-73
2022/03/06 06:27:02;;;;;;;7.30;4.38;;;0.90;99.90;;;;;;5133722;27;20123;-73
2022/03/06 06:29:28;;;;;;;9.30;4.38;;;0.90;99.90;;;;;;5133889;27;20390;-73
2022/03/06 06:31:54;;;;;;;7.13;4.20;;;0.90;99.90;;;;;;5132128;27;20071;-73
2022/03/06 06:34:20;;;;;;;6.40;4.05;;;0.90;99.90;;;;;;5133235;27;20509;-73
2022/03/06 06:36:46;;;;;;;6.20;4.10;;;0.90;99.90;;;;;;5132327;27;20035;-73
2022/03/06 06:39:12;;;;;;;5.35;3.70;;;0.90;99.90;;;;;;5141251;27;20441;-73
2022/03/06 06:41:42;;;;;;;6.70;3.70;;;0.90;99.90;;;;;;5112280;27;20039;-73
2022/03/06 06:44:09;;;;;;;6.82;3.90;;;0.90;99.90;;;;;;5112707;27;20045;-73
2022/03/06 06:46:35;;;;;;;7.93;3.67;;;1.00;99.90;;;;;;5095019;27;20050;-73
2022/03/06 06:49:03;;;;;;;5.70;3.35;;;1.10;99.90;;;;;;5111198;27;20103;-73
2022/03/06 06:51:30;;;;;;;7.10;3.72;;;1.30;99.90;;;;;;5112365;27;20051;-73
2022/03/06 06:53:56;;;;;;;7.55;3.53;;;1.40;99.90;;;;;;5111525;27;20122;-73
2022/03/06 06:56:21;;;;;;;5.07;3.42;;;1.60;99.90;;;;;;5095716;27;20470;-73
2022/03/06 06:58:47;;;;;;;7.55;3.53;;;2.00;99.90;;;;;;5111578;27;20081;-73
2022/03/06 07:01:15;;;;;;;8.05;3.60;;;2.50;99.90;;;;;;5111684;27;20126;-73
2022/03/06 07:03:40;;;;;;;7.55;3.10;;;3.20;99.90;;;;;;5111134;27;20115;-73
2022/03/06 07:06:06;;;;;;;4.90;2.97;;;4.10;99.90;;;;;;5111762;27;20039;-74
2022/03/06 07:08:32;;;;;;;6.07;3.20;;;4.80;99.90;;;;;;5094667;27;20051;-74
2022/03/06 07:10:57;;;;;;;5.50;2.97;;;5.40;99.90;;;;;;5112631;27;20558;-74
2022/03/06 07:13:23;;;;;;;5.15;2.90;;;6.10;99.90;;;;;;5110726;27;20039;-73
2022/03/06 07:15:49;;;;;;;4.65;2.80;;;6.50;99.90;;;;;;5111764;27;20508;-73
2022/03/06 07:18:14;;;;;;;6.05;2.80;;;6.80;99.90;;;;;;5110833;27;20448;-73
2022/03/06 07:20:40;;;;;;;6.75;2.83;;;7.30;99.90;;;;;;5111227;27;20566;-74
2022/03/06 07:23:06;;;;;;;6.22;3.13;;;8.00;99.90;;;;;;5111867;27;20047;-74
2022/03/06 07:25:31;;;;;;;5.20;3.17;;;8.00;99.90;;;;;;5111135;27;20131;-74
2022/03/06 07:27:57;;;;;;;4.25;2.70;;;8.50;99.90;;;;;;5111192;27;20087;-73
2022/03/06 07:30:23;;;;;;;4.90;3.13;;;9.10;99.90;;;;;;5111574;27;20082;-73
2022/03/06 07:32:53;;;;;;;5.10;2.83;;;9.90;99.90;;;;;;5128475;27;20391;-73
2022/03/06 07:35:20;;;;;;;5.88;2.65;;;9.70;99.90;;;;;;5131757;27;20155;-73
2022/03/06 07:37:47;;;;;;;5.80;2.85;;;10.40;99.90;;;;;;5131787;27;20050;-73
2022/03/06 07:40:16;;;;;;;4.70;2.67;;;10.20;99.90;;;;;;5115583;27;20043;-74
2022/03/06 07:42:42;;;;;;;7.63;3.00;;;10.60;99.30;;;;;;5131130;27;20080;-73
2022/03/06 07:45:08;;;;;;;4.90;2.60;;;10.80;98.30;;;;;;5132867;27;20051;-74
2022/03/06 07:47:34;;;;;;;5.15;2.80;;;10.30;98.80;;;;;;5148434;27;20089;-74
2022/03/06 07:50:00;;;;;;;6.57;2.70;;;10.90;97.30;;;;;;5149043;27;20431;-73
2022/03/06 07:52:26;;;;;;;4.65;2.63;;;10.90;97.20;;;;;;5131232;27;20180;-73
2022/03/06 07:54:51;;;;;;;5.93;2.80;;;12.20;96.40;;;;;;5132169;27;20038;-73
2022/03/06 07:57:17;;;;;;;5.70;2.75;;;11.60;94.90;;;;;;5142450;27;20552;-73
2022/03/06 07:59:43;;;;;;;4.07;2.40;;;12.50;94.60;;;;;;5128920;27;20395;-73
2022/03/06 08:02:09;;;;;;;4.82;2.50;;;10.80;95.50;;;;;;5128178;27;20403;-73
2022/03/06 08:04:34;;;;;;;3.72;2.10;;;10.10;96.00;;;;;;5109521;27;20403;-73
2022/03/06 08:07:00;;;;;;;4.95;2.30;;;10.30;97.20;;;;;;5128188;27;20103;-73
2022/03/06 08:09:26;;;;;;;4.70;2.90;;;10.60;96.90;;;;;;5128526;27;20039;-73
2022/03/06 08:11:52;;;;;;;6.75;2.92;;;13.30;94.20;;;;;;5109720;27;20517;-73
2022/03/06 08:14:19;;;;;;;4.68;2.80;;;15.30;88.50;;;;;;5111542;27;20448;-73
2022/03/06 08:16:44;;;;;;;4.95;2.63;;;16.70;78.70;;;;;;5127948;27;20039;-73
2022/03/06 08:19:10;;;;;;;4.53;2.60;;;18.50;66.80;;;;;;5125052;27;20047;-73
2022/03/06 08:21:36;;;;;;;5.00;2.58;;;19.00;58.50;;;;;;5110254;27;20097;-73
2022/03/06 08:24:01;;;;;;;5.18;2.80;;;19.90;57.30;;;;;;5109771;27;20047;-74
2022/03/06 08:26:27;;;;;;;4.93;2.53;;;21.00;54.60;;;;;;5110560;27;20082;-73
2022/03/06 08:28:53;;;;;;;5.80;2.50;;;20.70;52.00;;;;;;5112690;27;20039;-74
2022/03/06 08:31:19;;;;;;;5.05;2.38;;;17.90;51.50;;;;;;5110187;28;20499;-73
2022/03/06 08:33:45;;;;;;;4.80;2.40;;;16.10;53.80;;;;;;5109468;28;20043;-73
2022/03/06 08:36:11;;;;;;;4.63;2.45;;;14.70;57.50;;;;;;5110004;28;20043;-73
2022/03/06 08:38:37;;;;;;;5.20;2.70;;;13.70;61.10;;;;;;5092444;28;20050;-73
2022/03/06 08:41:02;;;;;;;3.75;2.30;;;13.00;65.50;;;;;;5110638;28;20407;-73
2022/03/06 08:43:28;;;;;;;5.60;2.17;;;12.20;74.80;;;;;;5095726;28;20040;-72
2022/03/06 08:45:54;;;;;;;7.07;2.40;;;11.60;80.20;;;;;;5109985;28;20054;-74
2022/03/06 08:48:21;;;;;;;3.88;2.42;;;12.20;82.20;;;;;;5127957;28;20050;-73
2022/03/06 08:50:49;;;;;;;5.35;2.45;;;15.40;68.10;;;;;;5093746;28;20050;-73
2022/03/06 08:53:16;;;;;;;4.90;2.42;;;16.90;59.80;;;;;;5109449;28;20121;-73
2022/03/06 08:55:41;;;;;;;4.75;2.58;;;19.10;56.20;;;;;;5110763;28;20158;-72
2022/03/06 08:58:07;;;;;;;6.07;2.60;;;20.70;50.70;;;;;;5107384;28;20124;-72
2022/03/06 09:00:33;;;;;;;5.10;2.40;;;21.60;45.70;;;;;;5127374;28;20058;-72
2022/03/06 09:02:59;;;;;;;3.83;2.20;;;22.40;45.40;;;;;;5127050;28;20058;-73
2022/03/06 09:05:24;;;;;;;4.90;2.47;;;23.40;44.00;;;;;;5128454;28;20548;-73
2022/03/06 09:07:50;;;;;;;5.45;2.30;;;24.30;43.10;;;;;;5126620;28;20042;-73
2022/03/06 09:10:16;;;;;;;4.47;2.33;;;25.00;41.90;;;;;;5128019;28;20411;-73
2022/03/06 09:12:42;;;;;;;4.90;2.20;;;26.30;41.50;;;;;;5127686;28;20126;-72
2022/03/06 09:15:08;;;;;;;3.72;2.10;;;26.30;39.50;;;;;;5111179;28;20613;-73
2022/03/06 09:17:34;;;;;;;4.63;2.10;;;26.60;39.50;;;;;;5108261;28;20076;-73
2022/03/06 09:20:00;;;;;;;4.28;2.08;;;26.70;38.30;;;;;;5126930;28;20039;-73
2022/03/06 09:22:25;;;;;;;3.78;2.10;;;27.10;38.90;;;;;;5093067;28;20118;-72
2022/03/06 09:24:51;;;;;;;3.70;2.13;;;26.90;38.20;;;;;;5109934;28;20054;-73
2022/03/06 09:27:17;;;;;;;4.47;2.15;;;27.40;38.00;;;;;;5110103;28;20043;-73
2022/03/06 09:29:42;;;;;;;3.60;2.10;;;27.20;37.40;;;;;;5109723;28;20039;-73
2022/03/06 09:32:08;;;;;;;4.35;2.10;;;27.10;36.80;;;;;;5128297;28;20087;-73
2022/03/06 09:34:34;;;;;;;4.72;2.20;;;27.30;37.10;;;;;;5108951;28;20089;-72
2022/03/06 09:36:59;;;;;;;4.10;2.20;;;27.80;36.90;;;;;;5111353;27;20499;-73
2022/03/06 09:39:25;;;;;;;4.38;2.20;;;28.20;36.70;;;;;;5132013;27;20071;-73
2022/03/06 09:41:54;;;;;;;5.70;2.05;;;28.40;36.80;;;;;;5113011;27;20491;-72
2022/03/06 09:44:23;;;;;;;3.50;2.10;;;28.80;36.70;;;;;;5113676;27;20039;-73
2022/03/06 09:46:52;;;;;;;4.28;2.30;;;29.20;35.40;;;;;;5086450;27;20038;-73
2022/03/06 09:49:18;;;;;;;3.40;2.08;;;29.00;35.70;;;;;;5133557;27;20043;-73
2022/03/06 09:51:44;;;;;;;4.40;2.33;;;29.50;35.60;;;;;;5116266;27;20163;-74
2022/03/06 09:54:12;;;;;;;2.92;2.00;;;30.10;34.30;;;;;;5133753;27;20082;-73
2022/03/06 09:56:39;;;;;;;3.55;2.00;;;29.90;34.20;;;;;;5152256;27;20046;-73
2022/03/06 09:59:05;;;;;;;4.68;2.10;;;30.00;34.60;;;;;;5133753;27;20038;-73
2022/03/06 10:01:32;;;;;;;3.03;1.90;;;30.60;34.30;;;;;;5132995;27;20053;-73
2022/03/06 10:03:57;;;;;;;5.55;2.20;;;30.90;34.60;;;;;;5132923;27;20083;-73
2022/03/06 10:06:23;;;;;;;3.70;2.08;;;30.90;33.80;;;;;;5133613;27;20499;-73
2022/03/06 10:09:04;;;;;;;4.55;2.20;;;31.30;33.40;;;;;;5132632;27;20046;-73
2022/03/06 10:11:31;;;;;;;4.32;2.25;;;31.60;33.80;;;;;;5133307;27;20042;-73
2022/03/06 10:13:57;;;;;;;4.43;2.30;;;31.90;33.10;;;;;;5133506;27;20114;-73
2022/03/06 10:16:23;;;;;;;3.78;2.17;;;32.00;33.50;;;;;;5133626;27;20115;-73
2022/03/06 10:18:51;;;;;;;5.03;2.25;;;32.60;32.70;;;;;;5131491;27;20058;-73
2022/03/06 10:21:21;;;;;;;4.63;2.20;;;33.20;32.30;;;;;;5133325;27;20483;-73
2022/03/06 10:23:50;;;;;;;4.60;2.20;;;33.00;32.40;;;;;;5131796;27;20622;-73
2022/03/06 10:26:25;;;;;;;3.88;2.30;;;32.70;33.20;;;;;;5130133;27;20047;-73
2022/03/06 10:28:55;;;;;;;4.93;2.00;;;31.70;32.20;;;;;;5130292;27;20047;-73
2022/03/06 10:31:22;;;;;;;5.47;2.00;;;31.00;31.80;;;;;;5112711;27;20042;-72
2022/03/06 10:34:05;;;;;;;5.53;2.20;;;30.30;32.40;;;;;;5129671;27;20054;-72
2022/03/06 10:36:35;;;;;;;3.97;2.20;;;29.90;32.90;;;;;;5129644;27;20103;-73
2022/03/06 10:39:21;;;;;;;5.88;2.40;;;29.70;33.10;;;;;;5099073;27;20039;-73
2022/03/06 10:41:52;;;;;;;4.43;2.28;;;30.10;33.20;;;;;;5130385;27;20224;-73
2022/03/06 10:44:19;;;;;;;4.78;2.28;;;31.00;33.10;;;;;;5112537;27;20054;-73
2022/03/06 10:47:03;;;;;;;3.92;2.22;;;31.50;33.00;;;;;;5111556;27;20399;-73
2022/03/06 10:49:32;;;;;;;5.72;2.38;;;32.00;32.60;;;;;;5092845;27;20070;-73
2022/03/06 10:52:15;;;;;;;6.53;2.60;;;31.60;32.20;;;;;;5129974;27;20043;-73
2022/03/06 10:54:57;;;;;;;5.15;2.17;;;31.20;32.50;;;;;;5129447;27;20043;-73
2022/03/06 10:57:24;;;;;;;4.68;2.10;;;31.60;32.90;;;;;;5128857;27;20178;-74
2022/03/06 10:59:51;;;;;;;4.05;2.25;;;32.40;32.70;;;;;;5130361;27;20054;-73
2022/03/06 11:02:17;;;;;;;5.82;2.47;;;33.20;32.20;;;;;;5096754;27;20043;-73
2022/03/06 11:04:46;;;;;;;4.25;2.22;;;33.60;32.30;;;;;;5127682;27;20043;-73
2022/03/06 11:07:12;;;;;;;5.32;2.13;;;34.30;32.00;;;;;;5112239;27;20054;-73
2022/03/06 11:09:39;;;;;;;3.85;1.88;;;34.30;31.30;;;;;;5111253;27;20046;-73
2022/03/06 11:12:06;;;;;;;4.55;2.17;;;34.80;31.50;;;;;;5111651;27;20481;-74
2022/03/06 11:14:32;;;;;;;4.50;2.13;;;35.10;31.70;;;;;;5130247;27;20066;-73
2022/03/06 11:16:58;;;;;;;4.30;2.20;;;35.70;31.40;;;;;;5128338;27;20173;-74
2022/03/06 11:19:26;;;;;;;4.95;2.15;;;36.10;31.10;;;;;;5127900;27;20047;-74
2022/03/06 11:22:10;;;;;;;5.28;2.13;;;35.20;31.00;;;;;;5093637;27;20512;-73
2022/03/06 11:24:37;;;;;;;4.15;2.10;;;33.90;30.90;;;;;;5094434;27;20414;-73
2022/03/06 11:27:24;;;;;;;5.07;2.13;;;32.90;31.10;;;;;;5111187;27;20059;-73
2022/03/06 11:30:11;;;;;;;4.40;2.20;;;31.40;31.20;;;;;;5114102;27;20039;-73
2022/03/06 11:32:39;;;;;;;6.22;2.80;;;30.30;31.80;;;;;;5109045;27;20046;-74
2022/03/06 11:35:15;;;;;;;4.35;2.30;;;30.20;32.20;;;;;;5112299;27;20047;-74
2022/03/06 11:37:55;;;;;;;4.90;2.38;;;30.00;32.30;;;;;;5110970;27;20531;-73
2022/03/06 11:40:44;;;;;;;4.53;2.30;;;29.30;32.50;;;;;;5127998;27;20371;-74
2022/03/06 11:43:35;;;;;;;6.38;2.55;;;28.60;32.80;;;;;;5111247;27;20103;-73
2022/03/06 11:46:12;;;;;;;5.03;2.40;;;27.90;33.20;;;;;;5103371;27;20184;-73
2022/03/06 11:48:37;;;;;;;4.85;2.40;;;26.80;33.70;;;;;;5109917;27;20047;-73
2022/03/06 11:51:18;;;;;;;6.22;2.50;;;25.40;34.00;;;;;;5110468;27;20049;-73
2022/03/06 11:54:05;;;;;;;4.55;2.33;;;24.20;35.10;;;;;;5110613;27;20050;-73
2022/03/06 11:56:39;;;;;;;5.40;2.70;;;22.30;36.10;;;;;;5129203;27;20043;-73
2022/03/06 11:59:17;;;;;;;4.10;2.37;;;21.20;37.50;;;;;;5111185;27;20086;-73
2022/03/06 12:02:08;;;;;;;5.38;2.60;;;20.00;38.70;;;;;;5109919;27;20419;-73
2022/03/06 12:04:38;;;;;;;4.82;2.42;;;19.10;39.70;;;;;;5109751;27;20352;-73
2022/03/06 12:07:08;;;;;;;6.68;2.45;;;18.50;41.00;;;;;;5109857;27;20137;-73
2022/03/06 12:09:40;;;;;;;5.32;2.50;;;17.90;41.90;;;;;;5110456;27;20047;-73
2022/03/06 12:12:15;;;;;;;5.32;2.75;;;16.80;42.60;;;;;;5113643;27;20123;-74
2022/03/06 12:14:45;;;;;;;5.55;2.83;;;16.30;43.80;;;;;;5112671;27;20400;-73
2022/03/06 12:17:11;;;;;;;5.05;2.67;;;15.90;44.60;;;;;;5111272;27;20103;-74
2022/03/06 12:19:42;;;;;;;5.30;2.53;;;15.70;45.20;;;;;;5109855;27;20038;-74
2022/03/06 12:22:12;;;;;;;5.10;2.80;;;15.60;45.70;;;;;;5109440;27;20039;-73
2022/03/06 12:24:39;;;;;;;6.22;2.88;;;15.30;46.10;;;;;;5110230;27;20047;-73
2022/03/06 12:27:20;;;;;;;5.97;2.53;;;15.10;46.50;;;;;;5110146;28;20092;-73
2022/03/06 12:29:46;;;;;;;5.20;2.47;;;15.30;47.20;;;;;;5128235;27;20368;-74
2022/03/06 12:32:31;;;;;;;4.70;2.53;;;15.30;47.50;;;;;;5093295;28;20054;-74
2022/03/06 12:34:59;;;;;;;5.60;2.38;;;15.50;47.70;;;;;;5111182;28;20372;-74
2022/03/06 12:37:31;;;;;;;5.07;2.72;;;15.70;47.90;;;;;;5108943;28;20047;-74
2022/03/06 12:39:58;;;;;;;5.68;2.70;;;15.60;48.10;;;;;;5111248;28;20108;-74
2022/03/06 12:42:32;;;;;;;6.25;2.65;;;15.50;48.30;;;;;;5127968;28;20070;-74
2022/03/06 12:45:00;;;;;;;4.82;2.53;;;15.50;48.70;;;;;;5112285;28;20087;-74
2022/03/06 12:47:34;;;;;;;6.30;2.90;;;15.40;49.10;;;;;;5111441;28;20187;-74
2022/03/06 12:50:00;;;;;;;6.20;2.30;;;15.00;49.40;;;;;;5109711;28;20523;-74